TimeEDT,TemperatureF,Dew PointF,Humidity,Sea Level PressureIn,VisibilityMPH,Wind Direction,Wind SpeedMPH,Gust SpeedMPH,PrecipitationIn,Events,Conditions,WindDirDegrees,DateUTC
12:53 AM,52.0,46.9,83,29.78,10.0,West,8.1,-,N/A,,Overcast,270,2013-09-22 04:53:00
1:53 AM,52.0,46.0,80,29.78,10.0,West,9.2,-,N/A,,Overcast,280,2013-09-22 05:53:00
2:53 AM,50.0,45.0,83,29.79,10.0,WNW,11.5,-,N/A,,Clear,290,2013-09-22 06:53:00
3:53 AM,48.0,44.1,86,29.80,10.0,West,6.9,-,N/A,,Clear,280,2013-09-22 07:53:00
4:53 AM,46.0,43.0,89,29.81,10.0,West,6.9,-,N/A,,Scattered Clouds,280,2013-09-22 08:53:00
5:53 AM,50.0,45.0,83,29.83,10.0,WNW,10.4,-,0.00,Rain,Light Rain,290,2013-09-22 09:53:00
6:16 AM,48.2,44.6,87,29.82,10.0,West,8.1,-,0.00,,Overcast,280,2013-09-22 10:16:00
6:53 AM,50.0,45.0,83,29.85,10.0,NW,8.1,-,0.00,,Overcast,310,2013-09-22 10:53:00
7:01 AM,50.0,44.6,82,29.84,10.0,NNW,6.9,-,N/A,,Mostly Cloudy,330,2013-09-22 11:01:00
7:53 AM,50.0,44.1,80,29.87,10.0,WNW,9.2,-,N/A,,Mostly Cloudy,300,2013-09-22 11:53:00
8:53 AM,52.0,44.1,74,29.89,10.0,WNW,10.4,-,N/A,,Mostly Cloudy,300,2013-09-22 12:53:00
9:53 AM,53.1,43.0,69,29.92,10.0,North,12.7,-,N/A,,Mostly Cloudy,350,2013-09-22 13:53:00
10:53 AM,52.0,42.1,69,29.93,10.0,NNW,12.7,-,N/A,,Mostly Cloudy,340,2013-09-22 14:53:00
11:53 AM,53.1,43.0,69,29.95,10.0,North,15.0,-,N/A,,Mostly Cloudy,10,2013-09-22 15:53:00
12:53 PM,52.0,41.0,66,29.96,10.0,NW,12.7,-,N/A,,Mostly Cloudy,320,2013-09-22 16:53:00
1:53 PM,54.0,41.0,62,29.96,10.0,NW,13.8,-,N/A,,Mostly Cloudy,310,2013-09-22 17:53:00
2:53 PM,53.1,42.1,66,29.97,10.0,NNW,15.0,-,N/A,,Mostly Cloudy,340,2013-09-22 18:53:00
3:53 PM,53.1,41.0,64,29.97,10.0,NNW,11.5,-,N/A,,Mostly Cloudy,340,2013-09-22 19:53:00
4:53 PM,54.0,39.9,59,29.98,10.0,WNW,12.7,-,N/A,,Mostly Cloudy,300,2013-09-22 20:53:00
5:53 PM,52.0,37.9,59,29.99,10.0,NW,12.7,-,N/A,,Mostly Cloudy,320,2013-09-22 21:53:00
6:53 PM,52.0,39.0,61,30.00,10.0,NNW,6.9,-,N/A,,Mostly Cloudy,330,2013-09-22 22:53:00
7:53 PM,51.1,39.9,66,30.02,10.0,NW,9.2,-,N/A,,Mostly Cloudy,310,2013-09-22 23:53:00
8:53 PM,51.1,39.9,66,30.03,10.0,NNW,9.2,-,N/A,,Mostly Cloudy,340,2013-09-23 00:53:00
9:53 PM,51.1,39.9,66,30.05,10.0,NNW,8.1,-,N/A,,Overcast,340,2013-09-23 01:53:00
10:53 PM,51.1,39.9,66,30.06,10.0,North,4.6,-,N/A,,Overcast,350,2013-09-23 02:53:00
11:53 PM,48.9,39.9,71,30.06,10.0,North,4.6,-,N/A,,Overcast,350,2013-09-23 03:53:00